IBE0630 LEMD-LEBL
Flight info
| Callsign | IBE0630 |
|---|---|
| Flight time | N/A |
| Altitude | 30000 |
| Route | PINAR N870 PONEN T600 CASPE |
| Aircraft | A320/M-SDE3FGHIRWY/LB1 |
Departure
| Time | 2026-05-05 16:20 |
|---|---|
| Airport | Adolfo Suárez Madrid–Barajas Airport (LEMD) |
Arrival
| Time | N/A |
|---|---|
| Airport | Josep Tarradellas Barcelona-El Prat Airport (LEBL) |
| Time | Latitude | Longitude | Altitude | Speed | Heading |
|---|---|---|---|---|---|
| 2026-05-05 15:56 | 40.48951 | -3.58981 | 2015 ft | 0 kts | 270° |
| 2026-05-05 16:02 | 40.48951 | -3.58968 | 2015 ft | 2 kts | 270° |
| 2026-05-05 16:02 | 40.48953 | -3.58945 | 2015 ft | 3 kts | 253° |
| 2026-05-05 16:03 | 40.48962 | -3.58921 | 2015 ft | 3 kts | 233° |
| 2026-05-05 16:03 | 40.48977 | -3.58903 | 2015 ft | 3 kts | 216° |
| 2026-05-05 16:03 | 40.48995 | -3.58890 | 2015 ft | 3 kts | 201° |
| 2026-05-05 16:03 | 40.49014 | -3.58882 | 2015 ft | 3 kts | 189° |
| 2026-05-05 16:04 | 40.49034 | -3.58880 | 2015 ft | 1 kts | 180° |
| 2026-05-05 16:06 | 40.49033 | -3.58880 | 2015 ft | 0 kts | 180° |
| 2026-05-05 16:08 | 40.48955 | -3.58864 | 2015 ft | 19 kts | 177° |
| 2026-05-05 16:08 | 40.48831 | -3.58861 | 2015 ft | 14 kts | 180° |
| 2026-05-05 16:08 | 40.48767 | -3.58857 | 2015 ft | 5 kts | 143° |
| 2026-05-05 16:09 | 40.48761 | -3.58826 | 2015 ft | 7 kts | 98° |
| 2026-05-05 16:09 | 40.48759 | -3.58759 | 2015 ft | 9 kts | 91° |
| 2026-05-05 16:09 | 40.48759 | -3.58654 | 2015 ft | 13 kts | 89° |
| 2026-05-05 16:09 | 40.48760 | -3.58513 | 2015 ft | 17 kts | 89° |
| 2026-05-05 16:10 | 40.48761 | -3.58398 | 2015 ft | 20 kts | 89° |
| 2026-05-05 16:10 | 40.48762 | -3.58250 | 2015 ft | 13 kts | 89° |
| 2026-05-05 16:10 | 40.48762 | -3.58153 | 2015 ft | 8 kts | 89° |
| 2026-05-05 16:10 | 40.48771 | -3.58075 | 2015 ft | 9 kts | 43° |
| 2026-05-05 16:11 | 40.48811 | -3.58062 | 2015 ft | 6 kts | 3° |
| 2026-05-05 16:11 | 40.48856 | -3.57859 | 2015 ft | 20 kts | 90° |
| 2026-05-05 16:12 | 40.48855 | -3.57683 | 2015 ft | 18 kts | 90° |
| 2026-05-05 16:12 | 40.48855 | -3.57300 | 2015 ft | 25 kts | 89° |
| 2026-05-05 16:13 | 40.48855 | -3.56692 | 2015 ft | 17 kts | 90° |
| 2026-05-05 16:13 | 40.48855 | -3.56526 | 2015 ft | 18 kts | 90° |
| 2026-05-05 16:13 | 40.48856 | -3.56393 | 2015 ft | 12 kts | 90° |
| 2026-05-05 16:14 | 40.48870 | -3.56263 | 2015 ft | 4 kts | 38° |
| 2026-05-05 16:14 | 40.48995 | -3.56255 | 2015 ft | 14 kts | 359° |
| 2026-05-05 16:15 | 40.49245 | -3.56259 | 2015 ft | 20 kts | 359° |
| 2026-05-05 16:15 | 40.49532 | -3.56259 | 2015 ft | 21 kts | 359° |
| 2026-05-05 16:16 | 40.49768 | -3.56259 | 2015 ft | 16 kts | 359° |
| 2026-05-05 16:16 | 40.49910 | -3.56262 | 2015 ft | 6 kts | 0° |
| 2026-05-05 16:17 | 40.49937 | -3.56230 | 2015 ft | 5 kts | 78° |
| 2026-05-05 16:17 | 40.49939 | -3.56186 | 2015 ft | 2 kts | 89° |
| 2026-05-05 16:18 | 40.49940 | -3.56153 | 2015 ft | 2 kts | 89° |
| 2026-05-05 16:18 | 40.49941 | -3.56113 | 2015 ft | 10 kts | 89° |
| 2026-05-05 16:18 | 40.49981 | -3.55962 | 2015 ft | 9 kts | 52° |
| 2026-05-05 16:19 | 40.50010 | -3.55918 | 2015 ft | 3 kts | 38° |
| 2026-05-05 16:19 | 40.50023 | -3.55912 | 2015 ft | 2 kts | 4° |
| 2026-05-05 16:19 | 40.50045 | -3.55910 | 2015 ft | 0 kts | 3° |
| 2026-05-05 16:20 | 40.50871 | -3.55917 | 2015 ft | 128 kts | 357° |
| 2026-05-05 16:20 | 40.52946 | -3.55880 | 2874 ft | 153 kts | 358° |
| 2026-05-05 16:21 | 40.55117 | -3.55806 | 4052 ft | 165 kts | 1° |
| 2026-05-05 16:22 | 40.59083 | -3.53896 | 4861 ft | 249 kts | 29° |
| 2026-05-05 16:22 | 40.62037 | -3.50817 | 6567 ft | 278 kts | 38° |
| 2026-05-05 16:23 | 40.65051 | -3.47478 | 8749 ft | 287 kts | 38° |
| 2026-05-05 16:23 | 40.66568 | -3.45788 | 9759 ft | 292 kts | 38° |
| 2026-05-05 16:23 | 40.69592 | -3.42413 | 11045 ft | 323 kts | 38° |
| 2026-05-05 16:24 | 40.71368 | -3.40432 | 11319 ft | 350 kts | 39° |
| 2026-05-05 16:24 | 40.73277 | -3.38296 | 12006 ft | 360 kts | 39° |
| 2026-05-05 16:24 | 40.77146 | -3.33955 | 13660 ft | 369 kts | 38° |
| 2026-05-05 16:25 | 40.79106 | -3.31753 | 14398 ft | 374 kts | 38° |
| 2026-05-05 16:25 | 40.83099 | -3.27267 | 15786 ft | 383 kts | 38° |
| 2026-05-05 16:25 | 40.85132 | -3.24978 | 16446 ft | 388 kts | 38° |
| 2026-05-05 16:26 | 40.88459 | -3.19249 | 17767 ft | 401 kts | 64° |
| 2026-05-05 16:26 | 40.89486 | -3.11955 | 18903 ft | 412 kts | 94° |
| 2026-05-05 16:27 | 40.89207 | -3.08143 | 19458 ft | 418 kts | 92° |
| 2026-05-05 16:27 | 40.89471 | -3.04305 | 19980 ft | 423 kts | 78° |
| 2026-05-05 16:27 | 40.90153 | -3.00534 | 20514 ft | 427 kts | 75° |
| 2026-05-05 16:27 | 40.90895 | -2.96697 | 21013 ft | 432 kts | 75° |
| 2026-05-05 16:28 | 40.91137 | -2.95457 | 21167 ft | 433 kts | 75° |
| 2026-05-05 16:28 | 40.91237 | -2.94946 | 21230 ft | 434 kts | 75° |
| 2026-05-05 16:28 | 40.91590 | -2.93147 | 21451 ft | 436 kts | 75° |
| 2026-05-05 16:28 | 40.92255 | -2.89766 | 21867 ft | 440 kts | 75° |
| 2026-05-05 16:29 | 40.93039 | -2.85774 | 22344 ft | 444 kts | 75° |
| 2026-05-05 16:29 | 40.93819 | -2.81797 | 22802 ft | 448 kts | 75° |
| 2026-05-05 16:29 | 40.94604 | -2.77790 | 23233 ft | 452 kts | 75° |
| 2026-05-05 16:29 | 40.95405 | -2.73701 | 23650 ft | 456 kts | 75° |
| 2026-05-05 16:30 | 40.96194 | -2.69663 | 24059 ft | 460 kts | 75° |
| 2026-05-05 16:30 | 40.96997 | -2.65544 | 24458 ft | 464 kts | 75° |
| 2026-05-05 16:30 | 40.97811 | -2.61357 | 24845 ft | 467 kts | 75° |
| 2026-05-05 16:30 | 40.98615 | -2.57199 | 25211 ft | 471 kts | 75° |
| 2026-05-05 16:31 | 40.99423 | -2.52975 | 25567 ft | 475 kts | 75° |
| 2026-05-05 16:31 | 41.00238 | -2.48702 | 25916 ft | 478 kts | 75° |
| 2026-05-05 16:31 | 41.01048 | -2.44448 | 26251 ft | 481 kts | 75° |
| 2026-05-05 16:31 | 41.01875 | -2.40112 | 26585 ft | 484 kts | 75° |
| 2026-05-05 16:32 | 41.02698 | -2.35789 | 26911 ft | 487 kts | 76° |
| 2026-05-05 16:32 | 41.03525 | -2.31407 | 27226 ft | 491 kts | 76° |
| 2026-05-05 16:32 | 41.04366 | -2.26946 | 27537 ft | 494 kts | 76° |
| 2026-05-05 16:32 | 41.05197 | -2.22536 | 27841 ft | 497 kts | 76° |
| 2026-05-05 16:33 | 41.06038 | -2.18084 | 28162 ft | 499 kts | 76° |
| 2026-05-05 16:33 | 41.06876 | -2.13637 | 28461 ft | 502 kts | 76° |
| 2026-05-05 16:33 | 41.07735 | -2.09078 | 28754 ft | 505 kts | 76° |
| 2026-05-05 16:33 | 41.08581 | -2.04564 | 29060 ft | 508 kts | 76° |
| 2026-05-05 16:34 | 41.09428 | -2.00002 | 29379 ft | 510 kts | 76° |
| 2026-05-05 16:34 | 41.10279 | -1.95434 | 29720 ft | 505 kts | 76° |
| 2026-05-05 16:34 | 41.11113 | -1.90963 | 29873 ft | 501 kts | 76° |
| 2026-05-05 16:34 | 41.11948 | -1.86460 | 29917 ft | 500 kts | 77° |
| 2026-05-05 16:35 | 41.13605 | -1.77507 | 29931 ft | 501 kts | 77° |
| 2026-05-05 16:35 | 41.15256 | -1.68564 | 29931 ft | 502 kts | 77° |
| 2026-05-05 16:36 | 41.16926 | -1.59498 | 29930 ft | 502 kts | 77° |
| 2026-05-05 16:36 | 41.18574 | -1.50524 | 29930 ft | 502 kts | 77° |
| 2026-05-05 16:37 | 41.19059 | -1.47879 | 29929 ft | 502 kts | 77° |